sensor_id;sensor_type;location;lat;lon;timestamp;P1;durP1;ratioP1;P2;durP2;ratioP2
41333;SDS011;27078;46.428;6.256;2024-01-15T00:00:38;7.70;;;4.45;;
41333;SDS011;27078;46.428;6.256;2024-01-15T00:03:04;8.50;;;4.13;;
41333;SDS011;27078;46.428;6.256;2024-01-15T00:05:30;7.82;;;4.28;;
41333;SDS011;27078;46.428;6.256;2024-01-15T00:07:55;7.50;;;4.15;;
41333;SDS011;27078;46.428;6.256;2024-01-15T00:10:20;7.03;;;3.58;;
41333;SDS011;27078;46.428;6.256;2024-01-15T00:12:46;6.50;;;3.53;;
41333;SDS011;27078;46.428;6.256;2024-01-15T00:15:11;7.22;;;3.42;;
41333;SDS011;27078;46.428;6.256;2024-01-15T00:17:37;6.45;;;3.35;;
41333;SDS011;27078;46.428;6.256;2024-01-15T00:20:02;6.28;;;3.28;;
41333;SDS011;27078;46.428;6.256;2024-01-15T00:22:28;6.97;;;3.15;;
41333;SDS011;27078;46.428;6.256;2024-01-15T00:24:54;6.13;;;3.13;;
41333;SDS011;27078;46.428;6.256;2024-01-15T00:27:19;7.57;;;3.33;;
41333;SDS011;27078;46.428;6.256;2024-01-15T00:29:44;6.47;;;3.40;;
41333;SDS011;27078;46.428;6.256;2024-01-15T00:32:10;6.80;;;3.10;;
41333;SDS011;27078;46.428;6.256;2024-01-15T00:34:35;5.85;;;2.90;;
41333;SDS011;27078;46.428;6.256;2024-01-15T00:37:00;7.63;;;3.20;;
41333;SDS011;27078;46.428;6.256;2024-01-15T00:39:26;6.28;;;2.97;;
41333;SDS011;27078;46.428;6.256;2024-01-15T00:41:51;5.88;;;2.72;;
41333;SDS011;27078;46.428;6.256;2024-01-15T00:44:17;4.40;;;2.53;;
41333;SDS011;27078;46.428;6.256;2024-01-15T00:46:43;6.85;;;3.17;;
41333;SDS011;27078;46.428;6.256;2024-01-15T00:49:12;5.72;;;3.00;;
41333;SDS011;27078;46.428;6.256;2024-01-15T00:51:38;5.32;;;2.83;;
41333;SDS011;27078;46.428;6.256;2024-01-15T00:54:03;4.82;;;2.50;;
41333;SDS011;27078;46.428;6.256;2024-01-15T00:56:29;3.80;;;1.67;;
41333;SDS011;27078;46.428;6.256;2024-01-15T00:58:54;4.18;;;2.20;;
41333;SDS011;27078;46.428;6.256;2024-01-15T01:01:19;4.55;;;2.20;;
41333;SDS011;27078;46.428;6.256;2024-01-15T01:03:45;4.30;;;2.10;;
41333;SDS011;27078;46.428;6.256;2024-01-15T01:06:10;4.43;;;1.90;;
41333;SDS011;27078;46.428;6.256;2024-01-15T01:08:35;5.38;;;2.47;;
41333;SDS011;27078;46.428;6.256;2024-01-15T01:11:01;4.90;;;2.60;;
41333;SDS011;27078;46.428;6.256;2024-01-15T01:13:26;4.20;;;2.33;;
41333;SDS011;27078;46.428;6.256;2024-01-15T01:15:51;3.40;;;1.70;;
41333;SDS011;27078;46.428;6.256;2024-01-15T01:18:17;4.03;;;1.90;;
41333;SDS011;27078;46.428;6.256;2024-01-15T01:20:42;5.15;;;2.38;;
41333;SDS011;27078;46.428;6.256;2024-01-15T01:23:07;4.25;;;2.17;;
41333;SDS011;27078;46.428;6.256;2024-01-15T01:25:33;4.97;;;2.13;;
41333;SDS011;27078;46.428;6.256;2024-01-15T01:27:58;3.35;;;1.70;;
41333;SDS011;27078;46.428;6.256;2024-01-15T01:30:23;3.35;;;1.60;;
41333;SDS011;27078;46.428;6.256;2024-01-15T01:32:48;2.70;;;1.50;;
41333;SDS011;27078;46.428;6.256;2024-01-15T01:35:14;3.28;;;1.52;;
41333;SDS011;27078;46.428;6.256;2024-01-15T01:37:39;3.22;;;1.50;;
41333;SDS011;27078;46.428;6.256;2024-01-15T01:40:05;2.15;;;1.10;;
41333;SDS011;27078;46.428;6.256;2024-01-15T01:42:31;2.65;;;1.20;;
41333;SDS011;27078;46.428;6.256;2024-01-15T01:44:56;2.10;;;1.08;;
41333;SDS011;27078;46.428;6.256;2024-01-15T01:47:21;2.85;;;1.00;;
41333;SDS011;27078;46.428;6.256;2024-01-15T01:49:47;2.42;;;1.23;;
41333;SDS011;27078;46.428;6.256;2024-01-15T01:52:12;3.05;;;0.90;;
41333;SDS011;27078;46.428;6.256;2024-01-15T01:54:38;1.58;;;0.88;;
41333;SDS011;27078;46.428;6.256;2024-01-15T01:57:05;2.95;;;1.00;;
41333;SDS011;27078;46.428;6.256;2024-01-15T01:59:31;2.03;;;0.70;;
41333;SDS011;27078;46.428;6.256;2024-01-15T02:01:59;1.48;;;0.60;;
41333;SDS011;27078;46.428;6.256;2024-01-15T02:04:27;2.30;;;0.70;;
41333;SDS011;27078;46.428;6.256;2024-01-15T02:06:53;1.10;;;0.40;;
41333;SDS011;27078;46.428;6.256;2024-01-15T02:09:18;1.75;;;0.60;;
41333;SDS011;27078;46.428;6.256;2024-01-15T02:11:46;1.67;;;0.50;;
41333;SDS011;27078;46.428;6.256;2024-01-15T02:14:12;1.23;;;0.60;;
41333;SDS011;27078;46.428;6.256;2024-01-15T02:16:37;0.75;;;0.35;;
41333;SDS011;27078;46.428;6.256;2024-01-15T02:19:03;1.05;;;0.50;;
41333;SDS011;27078;46.428;6.256;2024-01-15T02:21:28;1.60;;;0.50;;
41333;SDS011;27078;46.428;6.256;2024-01-15T02:23:57;0.95;;;0.43;;
41333;SDS011;27078;46.428;6.256;2024-01-15T02:26:22;1.30;;;0.70;;
41333;SDS011;27078;46.428;6.256;2024-01-15T02:28:48;3.17;;;0.85;;
41333;SDS011;27078;46.428;6.256;2024-01-15T02:31:15;1.50;;;0.70;;
41333;SDS011;27078;46.428;6.256;2024-01-15T02:33:40;3.05;;;0.73;;
41333;SDS011;27078;46.428;6.256;2024-01-15T02:36:07;1.60;;;0.80;;
41333;SDS011;27078;46.428;6.256;2024-01-15T02:38:33;1.98;;;0.60;;
41333;SDS011;27078;46.428;6.256;2024-01-15T02:40:58;2.45;;;0.70;;
41333;SDS011;27078;46.428;6.256;2024-01-15T02:43:23;2.95;;;0.90;;
41333;SDS011;27078;46.428;6.256;2024-01-15T02:45:49;1.42;;;0.70;;
41333;SDS011;27078;46.428;6.256;2024-01-15T02:48:14;1.90;;;0.60;;
41333;SDS011;27078;46.428;6.256;2024-01-15T02:50:40;2.17;;;0.70;;
41333;SDS011;27078;46.428;6.256;2024-01-15T02:53:05;1.45;;;0.70;;
41333;SDS011;27078;46.428;6.256;2024-01-15T02:55:30;1.48;;;0.63;;
41333;SDS011;27078;46.428;6.256;2024-01-15T02:57:56;1.73;;;0.70;;
41333;SDS011;27078;46.428;6.256;2024-01-15T03:00:21;1.67;;;0.70;;
41333;SDS011;27078;46.428;6.256;2024-01-15T03:02:47;1.88;;;0.63;;
41333;SDS011;27078;46.428;6.256;2024-01-15T03:05:15;1.55;;;0.68;;
41333;SDS011;27078;46.428;6.256;2024-01-15T03:07:40;2.30;;;0.50;;
41333;SDS011;27078;46.428;6.256;2024-01-15T03:10:06;2.05;;;0.65;;
41333;SDS011;27078;46.428;6.256;2024-01-15T03:12:32;1.52;;;0.40;;
41333;SDS011;27078;46.428;6.256;2024-01-15T03:14:57;2.25;;;0.70;;
41333;SDS011;27078;46.428;6.256;2024-01-15T03:17:22;1.38;;;0.65;;
41333;SDS011;27078;46.428;6.256;2024-01-15T03:19:48;2.83;;;0.52;;
41333;SDS011;27078;46.428;6.256;2024-01-15T03:22:14;1.25;;;0.50;;
41333;SDS011;27078;46.428;6.256;2024-01-15T03:24:40;1.23;;;0.60;;
41333;SDS011;27078;46.428;6.256;2024-01-15T03:27:06;1.45;;;0.70;;
41333;SDS011;27078;46.428;6.256;2024-01-15T03:29:31;1.90;;;0.70;;
41333;SDS011;27078;46.428;6.256;2024-01-15T03:31:56;2.33;;;0.80;;
41333;SDS011;27078;46.428;6.256;2024-01-15T03:34:22;2.22;;;0.70;;
41333;SDS011;27078;46.428;6.256;2024-01-15T03:36:47;1.38;;;0.60;;
41333;SDS011;27078;46.428;6.256;2024-01-15T03:39:13;1.55;;;0.63;;
41333;SDS011;27078;46.428;6.256;2024-01-15T03:41:38;1.60;;;0.52;;
41333;SDS011;27078;46.428;6.256;2024-01-15T03:44:03;1.90;;;0.60;;
41333;SDS011;27078;46.428;6.256;2024-01-15T03:46:29;2.42;;;0.55;;
41333;SDS011;27078;46.428;6.256;2024-01-15T03:48:54;1.50;;;0.60;;
41333;SDS011;27078;46.428;6.256;2024-01-15T03:51:19;2.00;;;0.85;;
41333;SDS011;27078;46.428;6.256;2024-01-15T03:53:45;1.48;;;0.70;;
41333;SDS011;27078;46.428;6.256;2024-01-15T03:56:10;1.63;;;0.75;;
41333;SDS011;27078;46.428;6.256;2024-01-15T03:58:36;1.75;;;0.80;;
41333;SDS011;27078;46.428;6.256;2024-01-15T04:01:01;1.20;;;0.60;;
41333;SDS011;27078;46.428;6.256;2024-01-15T04:03:27;1.48;;;0.57;;
41333;SDS011;27078;46.428;6.256;2024-01-15T04:05:52;1.30;;;0.70;;
41333;SDS011;27078;46.428;6.256;2024-01-15T04:08:17;1.67;;;0.70;;
41333;SDS011;27078;46.428;6.256;2024-01-15T04:10:43;1.65;;;0.80;;
41333;SDS011;27078;46.428;6.256;2024-01-15T04:13:08;1.95;;;0.90;;
41333;SDS011;27078;46.428;6.256;2024-01-15T04:15:34;1.55;;;0.70;;
41333;SDS011;27078;46.428;6.256;2024-01-15T04:18:01;1.42;;;0.82;;
41333;SDS011;27078;46.428;6.256;2024-01-15T04:20:27;2.28;;;0.85;;
41333;SDS011;27078;46.428;6.256;2024-01-15T04:22:52;1.33;;;0.80;;
41333;SDS011;27078;46.428;6.256;2024-01-15T04:25:18;2.78;;;1.25;;
41333;SDS011;27078;46.428;6.256;2024-01-15T04:27:43;2.17;;;1.10;;
41333;SDS011;27078;46.428;6.256;2024-01-15T04:30:08;1.80;;;1.02;;
41333;SDS011;27078;46.428;6.256;2024-01-15T04:32:35;2.63;;;1.10;;
41333;SDS011;27078;46.428;6.256;2024-01-15T04:35:01;1.90;;;0.90;;
41333;SDS011;27078;46.428;6.256;2024-01-15T04:37:26;1.83;;;0.90;;
41333;SDS011;27078;46.428;6.256;2024-01-15T04:39:51;1.70;;;0.90;;
41333;SDS011;27078;46.428;6.256;2024-01-15T04:42:20;2.83;;;0.98;;
41333;SDS011;27078;46.428;6.256;2024-01-15T04:44:45;2.58;;;1.00;;
41333;SDS011;27078;46.428;6.256;2024-01-15T04:47:11;2.30;;;0.93;;
41333;SDS011;27078;46.428;6.256;2024-01-15T04:49:36;2.30;;;1.10;;
41333;SDS011;27078;46.428;6.256;2024-01-15T04:52:01;1.80;;;0.88;;
41333;SDS011;27078;46.428;6.256;2024-01-15T04:54:27;2.53;;;1.20;;
41333;SDS011;27078;46.428;6.256;2024-01-15T04:56:52;1.98;;;0.90;;
41333;SDS011;27078;46.428;6.256;2024-01-15T04:59:17;2.95;;;1.02;;
41333;SDS011;27078;46.428;6.256;2024-01-15T05:01:43;2.40;;;1.30;;
41333;SDS011;27078;46.428;6.256;2024-01-15T05:04:08;2.10;;;1.10;;
41333;SDS011;27078;46.428;6.256;2024-01-15T05:06:34;2.60;;;0.93;;
41333;SDS011;27078;46.428;6.256;2024-01-15T05:08:59;2.35;;;1.20;;
41333;SDS011;27078;46.428;6.256;2024-01-15T05:11:24;2.80;;;1.13;;
41333;SDS011;27078;46.428;6.256;2024-01-15T05:13:49;2.63;;;1.20;;
41333;SDS011;27078;46.428;6.256;2024-01-15T05:16:15;3.90;;;1.40;;
41333;SDS011;27078;46.428;6.256;2024-01-15T05:18:40;3.00;;;1.40;;
41333;SDS011;27078;46.428;6.256;2024-01-15T05:21:06;4.45;;;1.83;;
41333;SDS011;27078;46.428;6.256;2024-01-15T05:23:31;2.90;;;1.50;;
41333;SDS011;27078;46.428;6.256;2024-01-15T05:25:56;3.40;;;1.48;;
41333;SDS011;27078;46.428;6.256;2024-01-15T05:28:22;3.30;;;1.60;;
41333;SDS011;27078;46.428;6.256;2024-01-15T05:30:47;3.15;;;1.58;;
41333;SDS011;27078;46.428;6.256;2024-01-15T05:33:13;3.53;;;1.70;;
41333;SDS011;27078;46.428;6.256;2024-01-15T05:35:38;4.63;;;1.77;;
41333;SDS011;27078;46.428;6.256;2024-01-15T05:38:04;3.25;;;1.75;;
41333;SDS011;27078;46.428;6.256;2024-01-15T05:40:29;3.83;;;1.83;;
41333;SDS011;27078;46.428;6.256;2024-01-15T05:42:54;3.40;;;1.70;;
41333;SDS011;27078;46.428;6.256;2024-01-15T05:45:20;3.47;;;1.70;;
41333;SDS011;27078;46.428;6.256;2024-01-15T05:47:45;2.75;;;1.70;;
41333;SDS011;27078;46.428;6.256;2024-01-15T05:50:10;3.80;;;1.80;;
41333;SDS011;27078;46.428;6.256;2024-01-15T05:52:36;3.88;;;2.00;;
41333;SDS011;27078;46.428;6.256;2024-01-15T05:55:01;4.05;;;1.90;;
41333;SDS011;27078;46.428;6.256;2024-01-15T05:57:27;4.00;;;1.77;;
41333;SDS011;27078;46.428;6.256;2024-01-15T05:59:53;3.33;;;1.85;;
41333;SDS011;27078;46.428;6.256;2024-01-15T06:02:18;3.90;;;2.10;;
41333;SDS011;27078;46.428;6.256;2024-01-15T06:04:44;3.65;;;2.10;;
41333;SDS011;27078;46.428;6.256;2024-01-15T06:07:09;4.28;;;2.20;;
41333;SDS011;27078;46.428;6.256;2024-01-15T06:09:34;3.30;;;1.88;;
41333;SDS011;27078;46.428;6.256;2024-01-15T06:12:00;4.38;;;2.28;;
41333;SDS011;27078;46.428;6.256;2024-01-15T06:14:25;3.95;;;2.10;;
41333;SDS011;27078;46.428;6.256;2024-01-15T06:16:51;4.07;;;2.20;;
41333;SDS011;27078;46.428;6.256;2024-01-15T06:19:17;4.68;;;2.25;;
41333;SDS011;27078;46.428;6.256;2024-01-15T06:21:42;4.00;;;2.20;;
41333;SDS011;27078;46.428;6.256;2024-01-15T06:24:08;4.15;;;2.17;;
41333;SDS011;27078;46.428;6.256;2024-01-15T06:26:35;5.45;;;2.22;;
41333;SDS011;27078;46.428;6.256;2024-01-15T06:29:00;3.85;;;2.10;;
41333;SDS011;27078;46.428;6.256;2024-01-15T06:31:25;3.83;;;2.10;;
41333;SDS011;27078;46.428;6.256;2024-01-15T06:33:51;3.58;;;2.00;;
41333;SDS011;27078;46.428;6.256;2024-01-15T06:36:16;3.58;;;2.13;;
41333;SDS011;27078;46.428;6.256;2024-01-15T06:38:42;3.83;;;1.98;;
41333;SDS011;27078;46.428;6.256;2024-01-15T06:41:09;3.47;;;2.00;;
41333;SDS011;27078;46.428;6.256;2024-01-15T06:43:34;4.63;;;2.33;;
41333;SDS011;27078;46.428;6.256;2024-01-15T06:45:59;3.38;;;1.90;;
41333;SDS011;27078;46.428;6.256;2024-01-15T06:48:25;5.10;;;2.40;;
41333;SDS011;27078;46.428;6.256;2024-01-15T06:50:50;5.47;;;2.40;;
41333;SDS011;27078;46.428;6.256;2024-01-15T06:53:15;4.75;;;2.40;;
41333;SDS011;27078;46.428;6.256;2024-01-15T06:55:41;4.70;;;2.50;;
41333;SDS011;27078;46.428;6.256;2024-01-15T06:58:06;3.95;;;2.20;;
41333;SDS011;27078;46.428;6.256;2024-01-15T07:00:31;4.90;;;2.50;;
41333;SDS011;27078;46.428;6.256;2024-01-15T07:02:57;4.95;;;2.50;;
41333;SDS011;27078;46.428;6.256;2024-01-15T07:05:23;4.45;;;2.35;;
41333;SDS011;27078;46.428;6.256;2024-01-15T07:07:48;3.97;;;2.30;;
41333;SDS011;27078;46.428;6.256;2024-01-15T07:10:14;4.82;;;2.60;;
41333;SDS011;27078;46.428;6.256;2024-01-15T07:12:43;4.90;;;2.88;;
41333;SDS011;27078;46.428;6.256;2024-01-15T07:15:09;5.07;;;2.90;;
41333;SDS011;27078;46.428;6.256;2024-01-15T07:17:34;6.78;;;3.05;;
41333;SDS011;27078;46.428;6.256;2024-01-15T07:20:00;5.85;;;2.85;;
41333;SDS011;27078;46.428;6.256;2024-01-15T07:22:25;6.95;;;3.00;;
41333;SDS011;27078;46.428;6.256;2024-01-15T07:24:51;4.47;;;2.85;;
41333;SDS011;27078;46.428;6.256;2024-01-15T07:27:16;5.18;;;2.88;;
41333;SDS011;27078;46.428;6.256;2024-01-15T07:29:41;5.30;;;2.67;;
41333;SDS011;27078;46.428;6.256;2024-01-15T07:32:07;4.28;;;2.63;;
41333;SDS011;27078;46.428;6.256;2024-01-15T07:34:33;5.28;;;2.97;;
41333;SDS011;27078;46.428;6.256;2024-01-15T07:36:59;5.38;;;2.78;;
41333;SDS011;27078;46.428;6.256;2024-01-15T07:39:24;5.55;;;2.90;;
41333;SDS011;27078;46.428;6.256;2024-01-15T07:41:53;5.88;;;3.00;;
41333;SDS011;27078;46.428;6.256;2024-01-15T07:44:18;5.78;;;3.08;;
41333;SDS011;27078;46.428;6.256;2024-01-15T07:46:44;5.93;;;2.75;;
41333;SDS011;27078;46.428;6.256;2024-01-15T07:49:10;5.65;;;2.85;;
41333;SDS011;27078;46.428;6.256;2024-01-15T07:51:36;8.20;;;4.35;;
41333;SDS011;27078;46.428;6.256;2024-01-15T07:54:01;6.57;;;3.65;;
41333;SDS011;27078;46.428;6.256;2024-01-15T07:56:27;7.25;;;3.50;;
41333;SDS011;27078;46.428;6.256;2024-01-15T07:58:52;8.27;;;4.70;;
41333;SDS011;27078;46.428;6.256;2024-01-15T08:01:18;16.10;;;8.27;;
41333;SDS011;27078;46.428;6.256;2024-01-15T08:03:43;18.42;;;8.20;;
41333;SDS011;27078;46.428;6.256;2024-01-15T08:06:08;13.10;;;6.35;;
41333;SDS011;27078;46.428;6.256;2024-01-15T08:08:34;7.97;;;4.00;;
41333;SDS011;27078;46.428;6.256;2024-01-15T08:11:00;7.82;;;4.32;;
41333;SDS011;27078;46.428;6.256;2024-01-15T08:13:26;11.57;;;5.20;;
41333;SDS011;27078;46.428;6.256;2024-01-15T08:15:52;10.20;;;5.25;;
41333;SDS011;27078;46.428;6.256;2024-01-15T08:18:17;12.70;;;5.93;;
41333;SDS011;27078;46.428;6.256;2024-01-15T08:20:42;12.13;;;5.75;;
41333;SDS011;27078;46.428;6.256;2024-01-15T08:23:08;6.60;;;3.78;;
41333;SDS011;27078;46.428;6.256;2024-01-15T08:25:34;5.90;;;3.25;;
41333;SDS011;27078;46.428;6.256;2024-01-15T08:27:59;5.45;;;2.72;;
41333;SDS011;27078;46.428;6.256;2024-01-15T08:30:25;6.95;;;3.38;;
41333;SDS011;27078;46.428;6.256;2024-01-15T08:32:53;7.88;;;4.00;;
41333;SDS011;27078;46.428;6.256;2024-01-15T08:35:19;9.05;;;4.47;;
41333;SDS011;27078;46.428;6.256;2024-01-15T08:37:47;8.90;;;4.38;;
41333;SDS011;27078;46.428;6.256;2024-01-15T08:40:14;10.82;;;5.32;;
41333;SDS011;27078;46.428;6.256;2024-01-15T08:42:39;9.52;;;4.15;;
41333;SDS011;27078;46.428;6.256;2024-01-15T08:45:05;8.43;;;4.30;;
41333;SDS011;27078;46.428;6.256;2024-01-15T08:47:31;8.75;;;4.60;;
41333;SDS011;27078;46.428;6.256;2024-01-15T08:49:56;8.93;;;4.55;;
41333;SDS011;27078;46.428;6.256;2024-01-15T08:52:21;7.63;;;4.05;;
41333;SDS011;27078;46.428;6.256;2024-01-15T08:54:47;10.95;;;4.65;;
41333;SDS011;27078;46.428;6.256;2024-01-15T08:57:12;8.68;;;4.78;;
41333;SDS011;27078;46.428;6.256;2024-01-15T08:59:38;8.63;;;4.43;;
41333;SDS011;27078;46.428;6.256;2024-01-15T09:02:03;9.90;;;5.35;;
41333;SDS011;27078;46.428;6.256;2024-01-15T09:04:29;9.13;;;4.63;;
41333;SDS011;27078;46.428;6.256;2024-01-15T09:06:54;11.35;;;5.20;;
41333;SDS011;27078;46.428;6.256;2024-01-15T09:09:19;10.98;;;5.57;;
41333;SDS011;27078;46.428;6.256;2024-01-15T09:11:45;8.90;;;4.72;;
41333;SDS011;27078;46.428;6.256;2024-01-15T09:14:10;8.88;;;4.80;;
41333;SDS011;27078;46.428;6.256;2024-01-15T09:16:36;8.43;;;4.35;;
41333;SDS011;27078;46.428;6.256;2024-01-15T09:19:01;9.48;;;5.40;;
41333;SDS011;27078;46.428;6.256;2024-01-15T09:21:27;8.68;;;4.43;;
41333;SDS011;27078;46.428;6.256;2024-01-15T09:23:52;9.52;;;5.15;;
41333;SDS011;27078;46.428;6.256;2024-01-15T09:26:17;8.35;;;4.20;;
41333;SDS011;27078;46.428;6.256;2024-01-15T09:28:43;7.10;;;4.35;;
41333;SDS011;27078;46.428;6.256;2024-01-15T09:31:08;9.13;;;4.45;;
41333;SDS011;27078;46.428;6.256;2024-01-15T09:33:34;9.27;;;4.78;;
41333;SDS011;27078;46.428;6.256;2024-01-15T09:36:02;8.60;;;4.03;;
41333;SDS011;27078;46.428;6.256;2024-01-15T09:38:29;9.80;;;4.00;;
41333;SDS011;27078;46.428;6.256;2024-01-15T09:40:54;7.95;;;4.47;;
41333;SDS011;27078;46.428;6.256;2024-01-15T09:43:20;8.80;;;4.70;;
41333;SDS011;27078;46.428;6.256;2024-01-15T09:45:46;9.73;;;4.55;;
41333;SDS011;27078;46.428;6.256;2024-01-15T09:48:12;7.93;;;4.05;;
41333;SDS011;27078;46.428;6.256;2024-01-15T09:50:37;10.25;;;4.70;;
41333;SDS011;27078;46.428;6.256;2024-01-15T09:53:03;9.80;;;4.75;;
41333;SDS011;27078;46.428;6.256;2024-01-15T09:55:30;9.02;;;3.90;;
41333;SDS011;27078;46.428;6.256;2024-01-15T09:57:57;8.23;;;4.20;;
41333;SDS011;27078;46.428;6.256;2024-01-15T10:00:25;7.40;;;3.88;;
41333;SDS011;27078;46.428;6.256;2024-01-15T10:02:51;8.35;;;4.25;;
41333;SDS011;27078;46.428;6.256;2024-01-15T10:05:17;10.02;;;4.57;;
41333;SDS011;27078;46.428;6.256;2024-01-15T10:07:42;7.50;;;4.00;;
41333;SDS011;27078;46.428;6.256;2024-01-15T10:10:10;6.97;;;3.65;;
41333;SDS011;27078;46.428;6.256;2024-01-15T10:12:36;8.02;;;4.13;;
41333;SDS011;27078;46.428;6.256;2024-01-15T10:15:02;7.30;;;3.53;;
41333;SDS011;27078;46.428;6.256;2024-01-15T10:17:29;6.63;;;3.45;;
41333;SDS011;27078;46.428;6.256;2024-01-15T10:19:56;6.35;;;3.28;;
41333;SDS011;27078;46.428;6.256;2024-01-15T10:22:22;6.63;;;3.30;;
41333;SDS011;27078;46.428;6.256;2024-01-15T10:24:48;7.32;;;3.53;;
41333;SDS011;27078;46.428;6.256;2024-01-15T10:27:14;7.15;;;3.33;;
41333;SDS011;27078;46.428;6.256;2024-01-15T10:29:40;6.40;;;3.60;;
41333;SDS011;27078;46.428;6.256;2024-01-15T10:32:07;6.07;;;3.33;;
41333;SDS011;27078;46.428;6.256;2024-01-15T10:34:38;5.28;;;3.00;;
41333;SDS011;27078;46.428;6.256;2024-01-15T10:37:06;5.68;;;3.28;;
41333;SDS011;27078;46.428;6.256;2024-01-15T10:39:32;5.90;;;3.08;;
41333;SDS011;27078;46.428;6.256;2024-01-15T10:41:58;6.65;;;3.20;;
41333;SDS011;27078;46.428;6.256;2024-01-15T10:44:23;5.28;;;2.90;;
41333;SDS011;27078;46.428;6.256;2024-01-15T10:46:48;6.07;;;3.30;;
41333;SDS011;27078;46.428;6.256;2024-01-15T10:49:15;5.35;;;2.40;;
41333;SDS011;27078;46.428;6.256;2024-01-15T10:51:41;7.45;;;2.53;;
41333;SDS011;27078;46.428;6.256;2024-01-15T10:54:08;4.70;;;2.22;;
41333;SDS011;27078;46.428;6.256;2024-01-15T10:56:36;3.38;;;1.98;;
41333;SDS011;27078;46.428;6.256;2024-01-15T10:59:02;4.93;;;2.58;;
41333;SDS011;27078;46.428;6.256;2024-01-15T11:01:29;3.72;;;2.25;;
41333;SDS011;27078;46.428;6.256;2024-01-15T11:03:56;7.13;;;2.97;;
41333;SDS011;27078;46.428;6.256;2024-01-15T11:06:23;4.38;;;2.55;;
41333;SDS011;27078;46.428;6.256;2024-01-15T11:08:49;5.32;;;2.55;;
41333;SDS011;27078;46.428;6.256;2024-01-15T11:11:16;6.28;;;2.90;;
41333;SDS011;27078;46.428;6.256;2024-01-15T11:13:43;5.38;;;2.92;;
41333;SDS011;27078;46.428;6.256;2024-01-15T11:16:11;5.43;;;2.75;;
41333;SDS011;27078;46.428;6.256;2024-01-15T11:18:42;5.38;;;2.72;;
41333;SDS011;27078;46.428;6.256;2024-01-15T11:23:49;4.90;;;2.70;;
41333;SDS011;27078;46.428;6.256;2024-01-15T11:28:57;5.10;;;2.45;;
41333;SDS011;27078;46.428;6.256;2024-01-15T11:34:05;4.40;;;2.40;;
41333;SDS011;27078;46.428;6.256;2024-01-15T11:41:56;5.20;;;3.00;;
41333;SDS011;27078;46.428;6.256;2024-01-15T11:44:28;4.40;;;2.58;;
41333;SDS011;27078;46.428;6.256;2024-01-15T11:52:33;5.60;;;2.17;;
41333;SDS011;27078;46.428;6.256;2024-01-15T12:00:14;15.55;;;4.20;;
41333;SDS011;27078;46.428;6.256;2024-01-15T12:02:44;2.78;;;1.30;;
41333;SDS011;27078;46.428;6.256;2024-01-15T12:05:12;15.27;;;4.00;;
41333;SDS011;27078;46.428;6.256;2024-01-15T12:07:39;18.08;;;4.53;;
41333;SDS011;27078;46.428;6.256;2024-01-15T12:10:10;12.20;;;3.60;;
41333;SDS011;27078;46.428;6.256;2024-01-15T12:12:59;11.73;;;3.50;;
41333;SDS011;27078;46.428;6.256;2024-01-15T12:15:29;21.08;;;6.30;;
41333;SDS011;27078;46.428;6.256;2024-01-15T12:17:56;22.42;;;5.65;;
41333;SDS011;27078;46.428;6.256;2024-01-15T12:20:22;20.08;;;5.57;;
41333;SDS011;27078;46.428;6.256;2024-01-15T12:22:49;12.10;;;4.60;;
41333;SDS011;27078;46.428;6.256;2024-01-15T12:25:14;15.52;;;5.22;;
41333;SDS011;27078;46.428;6.256;2024-01-15T12:27:40;16.20;;;4.85;;
41333;SDS011;27078;46.428;6.256;2024-01-15T12:30:05;10.02;;;3.95;;
41333;SDS011;27078;46.428;6.256;2024-01-15T12:32:32;18.85;;;5.40;;
41333;SDS011;27078;46.428;6.256;2024-01-15T12:34:57;13.20;;;4.82;;
41333;SDS011;27078;46.428;6.256;2024-01-15T12:37:23;15.90;;;5.13;;
41333;SDS011;27078;46.428;6.256;2024-01-15T12:39:51;15.57;;;5.03;;
41333;SDS011;27078;46.428;6.256;2024-01-15T12:42:17;11.35;;;4.30;;
41333;SDS011;27078;46.428;6.256;2024-01-15T12:44:42;12.13;;;4.53;;
41333;SDS011;27078;46.428;6.256;2024-01-15T12:47:10;14.20;;;4.57;;
41333;SDS011;27078;46.428;6.256;2024-01-15T12:49:38;13.25;;;4.25;;
41333;SDS011;27078;46.428;6.256;2024-01-15T12:52:07;11.43;;;4.00;;
41333;SDS011;27078;46.428;6.256;2024-01-15T12:54:33;11.82;;;4.53;;
41333;SDS011;27078;46.428;6.256;2024-01-15T12:56:59;15.73;;;5.10;;
41333;SDS011;27078;46.428;6.256;2024-01-15T12:59:24;13.70;;;4.93;;
41333;SDS011;27078;46.428;6.256;2024-01-15T13:01:49;14.57;;;4.68;;
41333;SDS011;27078;46.428;6.256;2024-01-15T13:04:24;14.02;;;5.18;;
41333;SDS011;27078;46.428;6.256;2024-01-15T13:06:50;12.38;;;4.30;;
41333;SDS011;27078;46.428;6.256;2024-01-15T13:09:16;11.85;;;4.03;;
41333;SDS011;27078;46.428;6.256;2024-01-15T13:11:42;9.98;;;3.83;;
41333;SDS011;27078;46.428;6.256;2024-01-15T13:14:08;10.30;;;3.47;;
41333;SDS011;27078;46.428;6.256;2024-01-15T13:16:34;7.35;;;3.10;;
41333;SDS011;27078;46.428;6.256;2024-01-15T13:18:59;10.02;;;3.83;;
41333;SDS011;27078;46.428;6.256;2024-01-15T13:21:24;7.85;;;3.03;;
41333;SDS011;27078;46.428;6.256;2024-01-15T13:23:50;7.95;;;3.08;;
41333;SDS011;27078;46.428;6.256;2024-01-15T13:26:15;5.78;;;2.83;;
41333;SDS011;27078;46.428;6.256;2024-01-15T13:28:43;9.27;;;3.30;;
41333;SDS011;27078;46.428;6.256;2024-01-15T13:31:08;9.27;;;3.22;;
41333;SDS011;27078;46.428;6.256;2024-01-15T13:33:35;8.00;;;3.17;;
41333;SDS011;27078;46.428;6.256;2024-01-15T13:36:00;9.00;;;3.30;;
41333;SDS011;27078;46.428;6.256;2024-01-15T13:38:26;8.98;;;3.58;;
41333;SDS011;27078;46.428;6.256;2024-01-15T13:40:52;8.60;;;3.40;;
41333;SDS011;27078;46.428;6.256;2024-01-15T13:43:20;9.70;;;3.63;;
41333;SDS011;27078;46.428;6.256;2024-01-15T13:45:45;8.77;;;3.22;;
41333;SDS011;27078;46.428;6.256;2024-01-15T13:48:11;4.57;;;2.60;;
41333;SDS011;27078;46.428;6.256;2024-01-15T13:50:36;5.88;;;2.80;;
41333;SDS011;27078;46.428;6.256;2024-01-15T13:53:02;5.15;;;2.70;;
41333;SDS011;27078;46.428;6.256;2024-01-15T13:55:28;5.78;;;2.40;;
41333;SDS011;27078;46.428;6.256;2024-01-15T13:57:54;5.50;;;2.40;;
41333;SDS011;27078;46.428;6.256;2024-01-15T14:00:20;6.13;;;3.58;;
41333;SDS011;27078;46.428;6.256;2024-01-15T14:02:46;6.25;;;2.78;;
41333;SDS011;27078;46.428;6.256;2024-01-15T14:05:12;17.52;;;5.13;;
41333;SDS011;27078;46.428;6.256;2024-01-15T14:07:41;8.70;;;3.20;;
41333;SDS011;27078;46.428;6.256;2024-01-15T14:10:08;5.78;;;2.90;;
41333;SDS011;27078;46.428;6.256;2024-01-15T14:12:34;4.43;;;2.53;;
41333;SDS011;27078;46.428;6.256;2024-01-15T14:15:01;5.43;;;3.00;;
41333;SDS011;27078;46.428;6.256;2024-01-15T14:17:27;4.30;;;2.28;;
41333;SDS011;27078;46.428;6.256;2024-01-15T14:19:53;8.18;;;3.33;;
41333;SDS011;27078;46.428;6.256;2024-01-15T14:22:18;7.00;;;2.72;;
41333;SDS011;27078;46.428;6.256;2024-01-15T14:24:43;3.53;;;1.75;;
41333;SDS011;27078;46.428;6.256;2024-01-15T14:27:09;4.03;;;1.75;;
41333;SDS011;27078;46.428;6.256;2024-01-15T14:29:35;6.28;;;2.45;;
41333;SDS011;27078;46.428;6.256;2024-01-15T14:32:00;2.83;;;1.40;;
41333;SDS011;27078;46.428;6.256;2024-01-15T14:34:26;4.90;;;1.92;;
41333;SDS011;27078;46.428;6.256;2024-01-15T14:36:52;5.07;;;1.63;;
41333;SDS011;27078;46.428;6.256;2024-01-15T14:39:20;5.55;;;2.00;;
41333;SDS011;27078;46.428;6.256;2024-01-15T14:41:47;7.53;;;2.22;;
41333;SDS011;27078;46.428;6.256;2024-01-15T14:44:12;5.50;;;2.42;;
41333;SDS011;27078;46.428;6.256;2024-01-15T14:46:38;6.82;;;2.65;;
41333;SDS011;27078;46.428;6.256;2024-01-15T14:49:04;6.88;;;1.95;;
41333;SDS011;27078;46.428;6.256;2024-01-15T14:51:30;4.78;;;2.05;;
41333;SDS011;27078;46.428;6.256;2024-01-15T14:53:55;5.70;;;2.20;;
41333;SDS011;27078;46.428;6.256;2024-01-15T14:56:20;3.28;;;1.40;;
41333;SDS011;27078;46.428;6.256;2024-01-15T14:58:46;3.10;;;1.50;;
41333;SDS011;27078;46.428;6.256;2024-01-15T15:01:14;3.65;;;1.75;;